createdAt,value
2022-12-06T00:00:17.063Z,1.04
2022-12-06T00:01:16.547Z,1.04
2022-12-06T00:02:16.740Z,1.04
2022-12-06T00:03:16.833Z,1.04
2022-12-06T00:04:16.943Z,1.04
2022-12-06T00:05:17.093Z,1.04
2022-12-06T00:06:17.197Z,1.04
2022-12-06T00:07:17.351Z,1.04
2022-12-06T00:08:17.542Z,1.04
2022-12-06T00:09:17.653Z,1.04
2022-12-06T00:10:17.800Z,1.04
2022-12-06T00:11:17.919Z,1.04
2022-12-06T00:12:18.075Z,1.04
2022-12-06T00:13:18.204Z,1.04
2022-12-06T00:14:18.352Z,1.04
2022-12-06T00:15:19.106Z,1.04
2022-12-06T00:16:18.651Z,1.04
2022-12-06T00:17:18.669Z,1.04
2022-12-06T00:18:18.857Z,1.04
2022-12-06T00:19:18.945Z,1.04
2022-12-06T00:20:19.685Z,1.04
2022-12-06T00:21:19.214Z,1.04
2022-12-06T00:22:19.374Z,1.04
2022-12-06T00:23:19.531Z,1.04
2022-12-06T00:24:19.674Z,1.04
2022-12-06T00:25:19.854Z,1.04
2022-12-06T00:26:19.976Z,1.04
2022-12-06T00:27:20.085Z,1.04
2022-12-06T00:28:20.225Z,1.04
2022-12-06T00:29:20.406Z,1.04
2022-12-06T00:30:21.040Z,1.04
2022-12-06T00:31:20.719Z,1.04
2022-12-06T00:32:20.844Z,1.04
2022-12-06T00:33:20.934Z,1.04
2022-12-06T00:34:21.112Z,1.04
2022-12-06T00:35:21.240Z,1.04
2022-12-06T00:36:21.423Z,1.04
2022-12-06T00:37:21.545Z,1.04
2022-12-06T00:38:21.693Z,1.04
2022-12-06T00:39:21.846Z,1.04
2022-12-06T00:40:21.993Z,1.04
2022-12-06T00:41:22.149Z,1.04
2022-12-06T00:42:22.291Z,1.04
2022-12-06T00:43:22.449Z,1.04
2022-12-06T00:44:22.556Z,1.04
2022-12-06T00:45:23.221Z,1.04
2022-12-06T00:46:22.921Z,1.04
2022-12-06T00:47:22.948Z,1.04
2022-12-06T00:48:23.096Z,1.04
2022-12-06T00:49:23.255Z,1.04
2022-12-06T00:50:23.416Z,1.04
2022-12-06T00:51:23.566Z,1.04
2022-12-06T00:52:23.722Z,1.04
2022-12-06T00:53:23.860Z,1.04
2022-12-06T00:54:24.017Z,1.04
2022-12-06T00:55:24.163Z,1.04
2022-12-06T00:56:24.319Z,1.04
2022-12-06T00:57:24.422Z,1.04
2022-12-06T00:58:24.562Z,1.04
2022-12-06T00:59:24.737Z,1.04
2022-12-06T01:00:25.422Z,1.04
2022-12-06T01:01:25.057Z,1.04
2022-12-06T01:02:25.158Z,1.04
2022-12-06T01:03:25.915Z,1.04
2022-12-06T01:04:25.414Z,1.04
2022-12-06T01:05:25.530Z,1.04
2022-12-06T01:06:25.686Z,1.04
2022-12-06T01:07:25.835Z,1.04
2022-12-06T01:08:25.969Z,1.04
2022-12-06T01:09:26.103Z,1.04
2022-12-06T01:10:26.270Z,1.04
2022-12-06T01:11:26.393Z,1.04
2022-12-06T01:12:26.547Z,1.04
2022-12-06T01:13:26.695Z,1.04
2022-12-06T01:14:26.840Z,1.04
2022-12-06T01:15:27.526Z,1.04
2022-12-06T01:16:27.226Z,1.04
2022-12-06T01:17:27.196Z,1.04
2022-12-06T01:18:27.345Z,1.04
2022-12-06T01:19:27.445Z,1.04
2022-12-06T01:20:27.594Z,1.04
2022-12-06T01:21:27.686Z,1.04
2022-12-06T01:22:27.871Z,1.04
2022-12-06T01:23:28.010Z,1.04
2022-12-06T01:24:28.155Z,1.04
2022-12-06T01:25:30.656Z,1.04
2022-12-06T01:26:28.577Z,1.04
2022-12-06T01:27:28.686Z,1.04
2022-12-06T01:28:29.369Z,1.04
2022-12-06T01:29:28.919Z,1.04
2022-12-06T01:30:29.610Z,1.04
2022-12-06T01:31:33.957Z,1.04
2022-12-06T01:32:29.329Z,1.04
2022-12-06T01:33:29.475Z,1.04
2022-12-06T01:34:29.569Z,1.04
2022-12-06T01:35:29.727Z,1.04
2022-12-06T01:36:29.880Z,1.04
2022-12-06T01:37:30.029Z,1.04
2022-12-06T01:38:30.175Z,1.04
2022-12-06T01:39:30.286Z,1.04
2022-12-06T01:40:30.430Z,1.04
2022-12-06T01:41:30.585Z,1.04
2022-12-06T01:42:30.729Z,1.04
2022-12-06T01:43:30.895Z,1.04
2022-12-06T01:44:31.052Z,1.04
2022-12-06T01:45:31.709Z,1.04
2022-12-06T01:46:31.392Z,1.04
2022-12-06T01:47:31.428Z,1.04
2022-12-06T01:48:31.605Z,1.04
2022-12-06T01:49:31.741Z,1.04
2022-12-06T01:50:31.898Z,1.04
2022-12-06T01:51:32.040Z,1.04
2022-12-06T01:52:32.195Z,1.04
2022-12-06T01:53:32.356Z,1.04
2022-12-06T01:54:32.521Z,1.04
2022-12-06T01:55:32.657Z,1.04
2022-12-06T01:56:32.793Z,1.04
2022-12-06T01:57:32.895Z,1.04
2022-12-06T01:58:33.056Z,1.04
2022-12-06T01:59:33.825Z,1.04
2022-12-06T02:00:33.461Z,1.04
2022-12-06T02:01:33.690Z,1.04
2022-12-06T02:02:33.849Z,1.04
2022-12-06T02:03:33.914Z,1.04
2022-12-06T02:04:34.087Z,1.04
2022-12-06T02:05:39.103Z,1.04
2022-12-06T02:06:34.367Z,1.04
2022-12-06T02:07:34.571Z,1.04
2022-12-06T02:08:34.616Z,1.04
2022-12-06T02:09:34.777Z,1.04
2022-12-06T02:10:34.924Z,1.04
2022-12-06T02:11:35.756Z,1.04
2022-12-06T02:12:35.233Z,1.04
2022-12-06T02:13:35.378Z,1.04
2022-12-06T02:14:36.197Z,1.04
2022-12-06T02:15:35.611Z,1.04
2022-12-06T02:16:35.912Z,1.04
2022-12-06T02:17:35.922Z,1.04
2022-12-06T02:18:36.118Z,1.04
2022-12-06T02:19:36.225Z,1.04
2022-12-06T02:20:36.381Z,1.04
2022-12-06T02:21:36.527Z,1.04
2022-12-06T02:22:36.689Z,1.04
2022-12-06T02:23:36.841Z,1.04
2022-12-06T02:24:36.944Z,1.04
2022-12-06T02:25:40.690Z,1.04
2022-12-06T02:26:37.251Z,1.04
2022-12-06T02:27:37.393Z,1.04
2022-12-06T02:28:37.557Z,1.04
2022-12-06T02:29:38.483Z,1.04
2022-12-06T02:30:37.944Z,1.04
2022-12-06T02:31:37.957Z,1.04
2022-12-06T02:32:38.138Z,1.04
2022-12-06T02:33:38.294Z,1.04
2022-12-06T02:34:38.519Z,1.04
2022-12-06T02:35:39.141Z,1.04
2022-12-06T02:36:38.769Z,1.04
2022-12-06T02:37:38.862Z,1.04
2022-12-06T02:38:38.956Z,1.04
2022-12-06T02:39:39.110Z,1.04
2022-12-06T02:40:39.248Z,1.04
2022-12-06T02:41:39.452Z,1.04
2022-12-06T02:42:39.505Z,1.04
2022-12-06T02:43:40.234Z,1.04
2022-12-06T02:44:40.375Z,1.04
2022-12-06T02:45:39.976Z,1.04
2022-12-06T02:46:40.184Z,1.04
2022-12-06T02:47:40.279Z,1.04
2022-12-06T02:48:40.379Z,1.04
2022-12-06T02:49:40.555Z,1.04
2022-12-06T02:50:40.697Z,1.04
2022-12-06T02:51:40.837Z,1.04
2022-12-06T02:52:40.937Z,1.04
2022-12-06T02:53:41.080Z,1.04
2022-12-06T02:54:41.234Z,1.04
2022-12-06T02:55:41.393Z,1.04
2022-12-06T02:56:41.543Z,1.04
2022-12-06T02:57:41.713Z,1.04
2022-12-06T02:58:41.832Z,1.04
2022-12-06T02:59:42.541Z,1.04
2022-12-06T03:00:42.136Z,1.04
2022-12-06T03:01:42.446Z,1.04
2022-12-06T03:02:42.478Z,1.04
2022-12-06T03:03:42.556Z,1.04
2022-12-06T03:04:42.696Z,1.04
2022-12-06T03:05:42.864Z,1.04
2022-12-06T03:06:43.026Z,1.04
2022-12-06T03:07:43.249Z,1.04
2022-12-06T03:08:43.304Z,1.04
2022-12-06T03:09:43.445Z,1.04
2022-12-06T03:10:43.613Z,1.04
2022-12-06T03:11:43.773Z,1.04
2022-12-06T03:12:43.925Z,1.04
2022-12-06T03:13:44.058Z,1.04
2022-12-06T03:14:44.950Z,1.04
2022-12-06T03:15:44.359Z,1.04
2022-12-06T03:16:44.470Z,1.04
2022-12-06T03:17:44.614Z,1.04
2022-12-06T03:18:44.771Z,1.04
2022-12-06T03:19:44.880Z,1.04
2022-12-06T03:20:45.024Z,1.04
2022-12-06T03:21:45.117Z,1.04
2022-12-06T03:22:45.259Z,1.04
2022-12-06T03:23:45.997Z,1.04
2022-12-06T03:24:45.583Z,1.04
2022-12-06T03:25:45.727Z,1.04
2022-12-06T03:26:45.892Z,1.04
2022-12-06T03:27:46.021Z,1.04
2022-12-06T03:28:46.131Z,1.04
2022-12-06T03:29:46.864Z,1.04
2022-12-06T03:30:46.532Z,1.04
2022-12-06T03:31:46.593Z,1.04
2022-12-06T03:32:46.757Z,1.04
2022-12-06T03:33:46.895Z,1.04
2022-12-06T03:34:47.044Z,1.04
2022-12-06T03:35:47.197Z,1.04
2022-12-06T03:36:47.306Z,1.04
2022-12-06T03:37:47.448Z,1.04
2022-12-06T03:38:47.602Z,1.04
2022-12-06T03:39:47.773Z,1.04
2022-12-06T03:40:47.908Z,1.04
2022-12-06T03:41:48.066Z,1.04
2022-12-06T03:42:48.216Z,1.04
2022-12-06T03:43:48.363Z,1.04
2022-12-06T03:44:49.031Z,1.04
2022-12-06T03:45:48.660Z,1.04
2022-12-06T03:46:48.832Z,1.04
2022-12-06T03:47:48.865Z,1.04
2022-12-06T03:48:49.023Z,1.04
2022-12-06T03:49:49.171Z,1.04
2022-12-06T03:50:51.898Z,1.04
2022-12-06T03:51:49.434Z,1.04
2022-12-06T03:52:49.570Z,1.04
2022-12-06T03:53:49.721Z,1.04
2022-12-06T03:54:49.818Z,1.04
2022-12-06T03:55:49.904Z,1.04
2022-12-06T03:56:50.045Z,1.04
2022-12-06T03:57:50.175Z,1.04
2022-12-06T03:58:50.255Z,1.04
2022-12-06T03:59:50.419Z,1.04
2022-12-06T04:00:50.566Z,1.04
2022-12-06T04:01:50.751Z,1.04
2022-12-06T04:02:50.819Z,1.04
2022-12-06T04:03:50.944Z,1.04
2022-12-06T04:04:51.076Z,1.04
2022-12-06T04:05:51.261Z,1.04
2022-12-06T04:06:51.376Z,1.04
2022-12-06T04:07:52.185Z,1.04
2022-12-06T04:08:51.694Z,1.04
2022-12-06T04:09:51.855Z,1.04
2022-12-06T04:10:51.996Z,1.04
2022-12-06T04:11:52.147Z,1.04
2022-12-06T04:12:52.308Z,1.04
2022-12-06T04:13:52.457Z,1.04
2022-12-06T04:14:53.178Z,1.04
2022-12-06T04:15:52.844Z,1.04
2022-12-06T04:16:52.911Z,1.04
2022-12-06T04:17:53.076Z,1.04
2022-12-06T04:18:53.206Z,1.04
2022-12-06T04:19:53.360Z,1.04
2022-12-06T04:20:53.488Z,1.04
2022-12-06T04:21:53.617Z,1.04
2022-12-06T04:22:53.769Z,1.04
2022-12-06T04:23:53.923Z,1.04
2022-12-06T04:24:54.071Z,1.04
2022-12-06T04:25:54.219Z,1.04
2022-12-06T04:26:54.368Z,1.04
2022-12-06T04:27:54.517Z,1.04
2022-12-06T04:28:54.672Z,1.04
2022-12-06T04:29:55.452Z,1.04
2022-12-06T04:30:55.040Z,1.04
2022-12-06T04:31:55.139Z,1.04
2022-12-06T04:32:55.189Z,1.04
2022-12-06T04:33:55.327Z,1.04
2022-12-06T04:34:55.473Z,1.04
2022-12-06T04:35:55.633Z,1.04
2022-12-06T04:36:55.783Z,1.04
2022-12-06T04:37:55.946Z,1.04
2022-12-06T04:38:56.100Z,1.04
2022-12-06T04:39:56.263Z,1.04
2022-12-06T04:40:56.397Z,1.04
2022-12-06T04:41:56.539Z,1.04
2022-12-06T04:42:56.673Z,1.04
2022-12-06T04:43:56.791Z,1.04
2022-12-06T04:44:57.533Z,1.04
2022-12-06T04:45:57.048Z,1.04
2022-12-06T04:46:57.261Z,1.04
2022-12-06T04:47:57.357Z,1.04
2022-12-06T04:48:57.481Z,1.04
2022-12-06T04:49:57.897Z,1.04
2022-12-06T04:50:57.759Z,1.04
2022-12-06T04:51:57.866Z,1.04
2022-12-06T04:52:58.007Z,1.04
2022-12-06T04:53:58.155Z,1.04
2022-12-06T04:54:58.312Z,1.04
2022-12-06T04:55:58.407Z,1.04
2022-12-06T04:56:58.575Z,1.04
2022-12-06T04:57:58.681Z,1.04
2022-12-06T04:58:58.829Z,1.04
2022-12-06T04:59:59.893Z,1.04
2022-12-06T05:00:59.135Z,1.04
2022-12-06T05:01:59.240Z,1.04
2022-12-06T05:02:59.372Z,1.04
2022-12-06T05:03:59.574Z,1.04
2022-12-06T05:04:59.692Z,1.04
2022-12-06T05:05:59.828Z,1.04
2022-12-06T05:07:00.013Z,1.04
2022-12-06T05:08:00.201Z,1.04
2022-12-06T05:09:00.277Z,1.04
2022-12-06T05:10:00.827Z,1.04
2022-12-06T05:11:00.594Z,1.04
2022-12-06T05:12:00.742Z,1.04
2022-12-06T05:13:00.898Z,1.04
2022-12-06T05:14:01.036Z,1.04
2022-12-06T05:15:01.666Z,1.04
2022-12-06T05:16:01.387Z,1.04
2022-12-06T05:17:01.439Z,1.04
2022-12-06T05:18:01.593Z,1.04
2022-12-06T05:19:01.777Z,1.04
2022-12-06T05:20:02.664Z,1.04
2022-12-06T05:21:02.006Z,1.04
2022-12-06T05:22:02.177Z,1.04
2022-12-06T05:23:02.315Z,1.04
2022-12-06T05:24:02.455Z,1.04
2022-12-06T05:25:02.572Z,1.04
2022-12-06T05:26:02.705Z,1.04
2022-12-06T05:27:02.866Z,1.04
2022-12-06T05:28:03.009Z,1.04
2022-12-06T05:29:03.127Z,1.04
2022-12-06T05:30:03.814Z,1.04
2022-12-06T05:31:03.474Z,1.04
2022-12-06T05:32:03.578Z,1.04
2022-12-06T05:33:03.625Z,1.04
2022-12-06T05:34:03.770Z,1.04
2022-12-06T05:35:03.917Z,1.04
2022-12-06T05:36:04.010Z,1.04
2022-12-06T05:37:04.112Z,1.04
2022-12-06T05:38:04.217Z,1.04
2022-12-06T05:39:04.389Z,1.04
2022-12-06T05:40:04.530Z,1.04
2022-12-06T05:41:04.686Z,1.04
2022-12-06T05:42:04.805Z,1.04
2022-12-06T05:43:04.937Z,1.04
2022-12-06T05:44:05.031Z,1.04
2022-12-06T05:45:05.687Z,1.04
2022-12-06T05:46:05.338Z,1.04
2022-12-06T05:47:05.434Z,1.04
2022-12-06T05:48:05.547Z,1.04
2022-12-06T05:49:05.693Z,1.04
2022-12-06T05:50:05.837Z,1.04
2022-12-06T05:51:06.000Z,1.04
2022-12-06T05:52:06.150Z,1.04
2022-12-06T05:53:06.285Z,1.04
2022-12-06T05:54:06.405Z,1.04
2022-12-06T05:55:06.555Z,1.04
2022-12-06T05:56:06.700Z,1.04
2022-12-06T05:57:06.862Z,1.04
2022-12-06T05:58:07.010Z,1.04
2022-12-06T05:59:07.174Z,1.04
2022-12-06T06:00:07.809Z,1.04
2022-12-06T06:01:07.455Z,1.04
2022-12-06T06:02:07.600Z,1.04
2022-12-06T06:03:07.814Z,1.04
2022-12-06T06:04:07.864Z,1.04
2022-12-06T06:05:08.011Z,1.04
2022-12-06T06:06:08.161Z,1.04
2022-12-06T06:07:08.256Z,1.04
2022-12-06T06:08:08.462Z,1.04
2022-12-06T06:09:08.545Z,1.04
2022-12-06T06:10:08.671Z,1.04
2022-12-06T06:11:08.824Z,1.04
2022-12-06T06:12:12.407Z,1.04
2022-12-06T06:13:09.123Z,1.04
2022-12-06T06:14:09.283Z,1.04
2022-12-06T06:15:10.044Z,1.04
2022-12-06T06:16:09.623Z,1.04
2022-12-06T06:17:09.817Z,1.04
2022-12-06T06:18:10.717Z,1.04
2022-12-06T06:19:10.047Z,1.04
2022-12-06T06:20:10.191Z,1.04
2022-12-06T06:21:10.328Z,2
2022-12-06T06:22:10.495Z,2
2022-12-06T06:23:10.630Z,2
2022-12-06T06:24:10.798Z,2
2022-12-06T06:25:10.931Z,2
2022-12-06T06:26:11.049Z,3.04
2022-12-06T06:27:11.191Z,3.04
2022-12-06T06:28:11.348Z,4
2022-12-06T06:29:11.499Z,4
2022-12-06T06:30:13.153Z,5.04
2022-12-06T06:31:11.791Z,6
2022-12-06T06:32:12.121Z,7.04
2022-12-06T06:33:12.109Z,8
2022-12-06T06:34:12.253Z,10
2022-12-06T06:35:12.409Z,11.04
2022-12-06T06:36:12.508Z,12
2022-12-06T06:37:12.669Z,12
2022-12-06T06:38:12.757Z,15.04
2022-12-06T06:39:12.907Z,19.04
2022-12-06T06:40:13.066Z,22
2022-12-06T06:41:13.212Z,25.04
2022-12-06T06:42:13.371Z,25.04
2022-12-06T06:43:13.510Z,26
2022-12-06T06:44:13.666Z,29.04
2022-12-06T06:45:14.498Z,31.04
2022-12-06T06:46:14.959Z,36
2022-12-06T06:47:14.163Z,41.04
2022-12-06T06:48:14.941Z,43.04
2022-12-06T06:49:14.532Z,44
2022-12-06T06:50:15.145Z,47.04
2022-12-06T06:51:14.728Z,52
2022-12-06T06:52:14.876Z,51.04
2022-12-06T06:53:15.031Z,56
2022-12-06T06:54:15.193Z,57.04
2022-12-06T06:55:15.332Z,53.04
2022-12-06T06:56:15.478Z,60
2022-12-06T06:57:17.753Z,63.04
2022-12-06T06:58:15.754Z,65.04
2022-12-06T06:59:15.892Z,69.04
2022-12-06T07:00:16.613Z,68
2022-12-06T07:01:16.264Z,62
2022-12-06T07:02:16.371Z,57.04
2022-12-06T07:03:16.425Z,62
2022-12-06T07:04:17.251Z,70
2022-12-06T07:05:16.784Z,92
2022-12-06T07:06:16.913Z,96
2022-12-06T07:07:20.862Z,99.04
2022-12-06T07:08:17.252Z,105.04
2022-12-06T07:09:17.270Z,115.04
2022-12-06T07:10:17.407Z,127.04
2022-12-06T07:11:17.591Z,137.04
2022-12-06T07:12:17.711Z,124
2022-12-06T07:13:17.856Z,112
2022-12-06T07:14:18.017Z,126
2022-12-06T07:15:18.738Z,140
2022-12-06T07:16:18.367Z,189.12
2022-12-06T07:17:18.541Z,167.04
2022-12-06T07:18:18.572Z,162
2022-12-06T07:19:18.676Z,150
2022-12-06T07:20:18.820Z,164
2022-12-06T07:21:18.991Z,169.12
2022-12-06T07:22:19.207Z,156
2022-12-06T07:23:19.971Z,169.12
2022-12-06T07:24:19.442Z,179.04
2022-12-06T07:25:19.590Z,202.08
2022-12-06T07:26:19.684Z,220
2022-12-06T07:27:19.860Z,208
2022-12-06T07:28:19.981Z,207.04
2022-12-06T07:29:20.136Z,195.04
2022-12-06T07:30:25.805Z,188
2022-12-06T07:31:20.569Z,193.12
2022-12-06T07:32:20.535Z,208
2022-12-06T07:33:20.683Z,201.12
2022-12-06T07:34:20.839Z,205.12
2022-12-06T07:35:20.997Z,255.04
2022-12-06T07:36:21.145Z,308
2022-12-06T07:37:21.301Z,327.04
2022-12-06T07:38:21.448Z,295.04
2022-12-06T07:39:21.604Z,280
2022-12-06T07:40:35.416Z,301.12
2022-12-06T07:41:21.898Z,281.12
2022-12-06T07:42:22.047Z,268
2022-12-06T07:43:22.200Z,309.12
2022-12-06T07:44:22.363Z,485.12
2022-12-06T07:45:23.058Z,550.08
2022-12-06T07:46:22.731Z,485.12
2022-12-06T07:47:22.764Z,401.28
2022-12-06T07:48:22.862Z,392
2022-12-06T07:49:23.068Z,361.28
2022-12-06T07:50:23.118Z,389.12
2022-12-06T07:51:23.203Z,594.24
2022-12-06T07:52:23.360Z,607.04
2022-12-06T07:53:23.518Z,540.16
2022-12-06T07:54:23.625Z,501.12
2022-12-06T07:55:23.775Z,547.2
2022-12-06T07:56:23.935Z,615.04
2022-12-06T07:57:24.049Z,681.6
2022-12-06T07:58:24.180Z,739.2
2022-12-06T07:59:24.282Z,705.28
2022-12-06T08:00:25.003Z,640
2022-12-06T08:01:24.644Z,705.28
2022-12-06T08:02:25.548Z,827.52
2022-12-06T08:03:24.925Z,933.12
2022-12-06T08:04:25.149Z,857.6
2022-12-06T08:05:25.243Z,866.56
2022-12-06T08:06:25.394Z,879.36
2022-12-06T08:07:25.544Z,980.48
2022-12-06T08:08:28.648Z,938.24
2022-12-06T08:09:25.852Z,856.32
2022-12-06T08:10:25.994Z,827.52
2022-12-06T08:11:26.157Z,802.56
2022-12-06T08:12:26.343Z,913.28
2022-12-06T08:13:26.445Z,1119.36
2022-12-06T08:14:26.597Z,1160.32
2022-12-06T08:15:27.258Z,1174.4
2022-12-06T08:16:26.951Z,1152
2022-12-06T08:17:27.007Z,1136
2022-12-06T08:18:27.166Z,1135.36
2022-12-06T08:19:27.259Z,1122.56
2022-12-06T08:20:27.406Z,1087.36
2022-12-06T08:21:27.576Z,1058.56
2022-12-06T08:22:27.710Z,1057.28
2022-12-06T08:23:32.347Z,1096.32
2022-12-06T08:24:28.047Z,1115.52
2022-12-06T08:25:28.158Z,1097.6
2022-12-06T08:26:28.316Z,1121.28
2022-12-06T08:27:28.473Z,1204.48
2022-12-06T08:28:28.624Z,1276.16
2022-12-06T08:29:28.784Z,1253.12
2022-12-06T08:30:29.454Z,1201.28
2022-12-06T08:31:29.141Z,1195.52
2022-12-06T08:32:29.164Z,1262.08
2022-12-06T08:33:29.323Z,1270.4
2022-12-06T08:34:29.485Z,1286.4
2022-12-06T08:35:29.636Z,1395.2
2022-12-06T08:36:29.784Z,1454.08
2022-12-06T08:37:29.941Z,1432.32
2022-12-06T08:38:30.091Z,1319.68
2022-12-06T08:39:30.227Z,1238.4
2022-12-06T08:40:30.384Z,1346.56
2022-12-06T08:41:30.497Z,1524.48
2022-12-06T08:42:30.638Z,1653.76
2022-12-06T08:43:30.822Z,1651.2
2022-12-06T08:44:30.999Z,1684.48
2022-12-06T08:45:31.751Z,1717.76
2022-12-06T08:46:31.328Z,1643.52
2022-12-06T08:47:31.490Z,1735.68
2022-12-06T08:48:31.614Z,1715.2
2022-12-06T08:49:31.758Z,1637.12
2022-12-06T08:50:31.890Z,1620.48
2022-12-06T08:51:32.040Z,1715.2
2022-12-06T08:52:32.202Z,1726.72
2022-12-06T08:53:32.299Z,1706.24
2022-12-06T08:54:32.442Z,1612.8
2022-12-06T08:55:32.549Z,1664
2022-12-06T08:56:32.707Z,1713.92
2022-12-06T08:57:32.810Z,1635.84
2022-12-06T08:58:32.909Z,1731.84
2022-12-06T08:59:33.690Z,1840.64
2022-12-06T09:00:33.201Z,1802.24
2022-12-06T09:01:37.619Z,1752.32
2022-12-06T09:02:33.473Z,1792
2022-12-06T09:03:33.622Z,1790.72
2022-12-06T09:04:33.891Z,1733.12
2022-12-06T09:05:33.923Z,1646.08
2022-12-06T09:06:34.028Z,1653.76
2022-12-06T09:07:34.204Z,1652.48
2022-12-06T09:08:34.368Z,1591.04
2022-12-06T09:09:34.467Z,1568
2022-12-06T09:10:34.593Z,1553.92
2022-12-06T09:11:34.740Z,1477.12
2022-12-06T09:12:34.879Z,1475.84
2022-12-06T09:13:35.037Z,1420.8
2022-12-06T09:14:35.872Z,1377.28
2022-12-06T09:15:35.378Z,1290.24
2022-12-06T09:16:35.503Z,1320.96
2022-12-06T09:17:35.589Z,1317.12
2022-12-06T09:18:35.678Z,1320.96
2022-12-06T09:19:35.838Z,1322.24
2022-12-06T09:20:35.954Z,1332.48
2022-12-06T09:21:36.130Z,1603.84
2022-12-06T09:22:36.259Z,1758.72
2022-12-06T09:23:36.404Z,1863.68
2022-12-06T09:24:36.551Z,1999.36
2022-12-06T09:25:36.692Z,2108.16
2022-12-06T09:26:36.855Z,2021.12
2022-12-06T09:27:37.011Z,1893.12
2022-12-06T09:28:37.156Z,1931.52
2022-12-06T09:29:40.701Z,1756.16
2022-12-06T09:30:37.447Z,1555.2
2022-12-06T09:31:37.683Z,1752.32
2022-12-06T09:32:37.762Z,1766.4
2022-12-06T09:33:37.935Z,1742.08
2022-12-06T09:34:38.067Z,1660.16
2022-12-06T09:35:38.267Z,1798.4
2022-12-06T09:36:39.393Z,1921.28
2022-12-06T09:37:38.521Z,2024.96
2022-12-06T09:38:38.683Z,1888
2022-12-06T09:39:38.808Z,1811.2
2022-12-06T09:40:42.803Z,1742.08
2022-12-06T09:41:39.120Z,1839.36
2022-12-06T09:42:39.281Z,1739.52
2022-12-06T09:43:39.434Z,1844.48
2022-12-06T09:44:40.284Z,1876.48
2022-12-06T09:45:39.675Z,2027.52
2022-12-06T09:46:39.892Z,1909.76
2022-12-06T09:47:39.992Z,1623.04
2022-12-06T09:48:44.329Z,1925.12
2022-12-06T09:49:40.305Z,1876.48
2022-12-06T09:50:40.438Z,1664
2022-12-06T09:51:40.564Z,1633.28
2022-12-06T09:52:40.715Z,1832.96
2022-12-06T09:53:40.854Z,2227.2
2022-12-06T09:54:41.740Z,1964.8
2022-12-06T09:55:41.094Z,1978.88
2022-12-06T09:56:41.251Z,2071.04
2022-12-06T09:57:41.358Z,1911.04
2022-12-06T09:58:41.508Z,2128.64
2022-12-06T09:59:42.233Z,2471.68
2022-12-06T10:00:41.750Z,2492.16
2022-12-06T10:01:41.988Z,2328.32
2022-12-06T10:02:42.104Z,2268.16
2022-12-06T10:03:42.260Z,2447.36
2022-12-06T10:04:42.403Z,2434.56
2022-12-06T10:05:42.556Z,2594.56
2022-12-06T10:06:43.278Z,2588.16
2022-12-06T10:07:42.903Z,2624
2022-12-06T10:08:43.057Z,2580.48
2022-12-06T10:09:43.138Z,2716.16
2022-12-06T10:10:43.273Z,2867.2
2022-12-06T10:11:43.441Z,2890.24
2022-12-06T10:12:43.579Z,2521.6
2022-12-06T10:13:43.721Z,2485.76
2022-12-06T10:14:44.293Z,2895.36
2022-12-06T10:15:44.066Z,2936.32
2022-12-06T10:16:44.172Z,2949.12
2022-12-06T10:17:47.767Z,2808.32
2022-12-06T10:18:44.431Z,2979.84
2022-12-06T10:19:44.576Z,3118.08
2022-12-06T10:20:44.689Z,3143.68
2022-12-06T10:21:44.856Z,2862.08
2022-12-06T10:22:44.979Z,2895.36
2022-12-06T10:23:45.141Z,2944
2022-12-06T10:24:45.325Z,2777.6
2022-12-06T10:25:45.460Z,2744.32
2022-12-06T10:26:45.586Z,2777.6
2022-12-06T10:27:45.764Z,2667.52
2022-12-06T10:28:45.897Z,2644.48
2022-12-06T10:29:46.521Z,2494.72
2022-12-06T10:30:46.180Z,2695.68
2022-12-06T10:31:46.347Z,2785.28
2022-12-06T10:32:46.446Z,2613.76
2022-12-06T10:33:46.601Z,2100.48
2022-12-06T10:34:49.192Z,1845.76
2022-12-06T10:35:46.882Z,2177.28
2022-12-06T10:36:47.005Z,2488.32
2022-12-06T10:37:47.151Z,2231.04
2022-12-06T10:38:47.307Z,2250.24
2022-12-06T10:39:51.825Z,2300.16
2022-12-06T10:40:47.578Z,2533.12
2022-12-06T10:41:47.701Z,2480.64
2022-12-06T10:42:47.812Z,2261.76
2022-12-06T10:43:47.990Z,2146.56
2022-12-06T10:44:48.683Z,2291.2
2022-12-06T10:45:48.256Z,2451.2
2022-12-06T10:46:48.446Z,2908.16
2022-12-06T10:47:48.617Z,2890.24
2022-12-06T10:48:48.725Z,2808.32
2022-12-06T10:49:48.881Z,2926.08
2022-12-06T10:50:49.017Z,2584.32
2022-12-06T10:51:49.172Z,2492.16
2022-12-06T10:52:49.317Z,2654.72
2022-12-06T10:53:49.474Z,2494.72
2022-12-06T10:54:49.633Z,2361.6
2022-12-06T10:55:49.784Z,2566.4
2022-12-06T10:56:49.930Z,2995.2
2022-12-06T10:57:50.088Z,3031.04
2022-12-06T10:58:50.233Z,3420.16
2022-12-06T10:59:51.035Z,3645.44
2022-12-06T11:00:50.596Z,3379.2
2022-12-06T11:01:50.793Z,2746.88
2022-12-06T11:02:50.833Z,2895.36
2022-12-06T11:03:50.998Z,3696.64
2022-12-06T11:04:51.148Z,3258.88
2022-12-06T11:05:51.265Z,2931.2
2022-12-06T11:06:54.631Z,2890.24
2022-12-06T11:07:51.643Z,2731.52
2022-12-06T11:08:51.707Z,2954.24
2022-12-06T11:09:51.855Z,2839.04
2022-12-06T11:10:51.997Z,2538.24
2022-12-06T11:11:52.109Z,2528
2022-12-06T11:12:52.251Z,2323.2
2022-12-06T11:13:52.407Z,2058.24
2022-12-06T11:14:53.088Z,1624.32
2022-12-06T11:15:52.769Z,1562.88
2022-12-06T11:16:52.807Z,1808.64
2022-12-06T11:17:54.100Z,2131.2
2022-12-06T11:18:53.115Z,2133.76
2022-12-06T11:19:53.269Z,1958.4
2022-12-06T11:20:53.441Z,1908.48
2022-12-06T11:21:53.610Z,1836.8
2022-12-06T11:22:53.770Z,1856
2022-12-06T11:23:53.913Z,1921.28
2022-12-06T11:24:54.078Z,2432
2022-12-06T11:25:54.221Z,2328.32
2022-12-06T11:26:54.376Z,2201.6
2022-12-06T11:27:54.536Z,2311.68
2022-12-06T11:28:54.685Z,2442.24
2022-12-06T11:29:55.346Z,2557.44
2022-12-06T11:30:54.965Z,2415.36
2022-12-06T11:31:55.174Z,2396.16
2022-12-06T11:32:55.285Z,2552.32
2022-12-06T11:33:55.377Z,2446.08
2022-12-06T11:34:55.482Z,2318.08
2022-12-06T11:35:55.642Z,2474.24
2022-12-06T11:37:00.016Z,2449.92
2022-12-06T11:37:55.935Z,2602.24
2022-12-06T11:38:56.024Z,2183.68
2022-12-06T11:39:56.207Z,2076.16
2022-12-06T11:40:56.341Z,2245.12
2022-12-06T11:41:56.489Z,2302.72
2022-12-06T11:42:56.651Z,2277.12
2022-12-06T11:43:56.793Z,2277.12
2022-12-06T11:44:57.518Z,2626.56
2022-12-06T11:45:57.050Z,2682.88
2022-12-06T11:46:57.307Z,2480.64
2022-12-06T11:47:57.357Z,2304
2022-12-06T11:48:57.514Z,2283.52
2022-12-06T11:50:00.448Z,2324.48
2022-12-06T11:50:57.808Z,2131.2
2022-12-06T11:51:57.963Z,2359.04
2022-12-06T11:52:58.109Z,1937.92
2022-12-06T11:53:58.735Z,1895.68
2022-12-06T11:54:59.281Z,1903.36
2022-12-06T11:55:58.561Z,2039.04
2022-12-06T11:56:58.723Z,1736.96
2022-12-06T11:57:58.880Z,1669.12
2022-12-06T11:58:59.041Z,1885.44
2022-12-06T11:59:59.865Z,2274.56
2022-12-06T12:00:59.322Z,1935.36
2022-12-06T12:01:59.552Z,1898.24
2022-12-06T12:02:59.688Z,1756.16
2022-12-06T12:03:59.725Z,1617.92
2022-12-06T12:05:00.128Z,1632
2022-12-06T12:06:00.033Z,1614.08
2022-12-06T12:07:00.141Z,1615.36
2022-12-06T12:08:00.410Z,1507.84
2022-12-06T12:09:00.457Z,1498.88
2022-12-06T12:10:00.621Z,1509.12
2022-12-06T12:11:00.779Z,1564.16
2022-12-06T12:12:00.858Z,1536
2022-12-06T12:13:00.989Z,1510.4
2022-12-06T12:14:01.167Z,1528.32
2022-12-06T12:15:02.163Z,1390.08
2022-12-06T12:16:01.477Z,1579.52
2022-12-06T12:17:01.688Z,1692.16
2022-12-06T12:18:01.712Z,1630.72
2022-12-06T12:19:01.831Z,1734.4
2022-12-06T12:20:01.947Z,1820.16
2022-12-06T12:21:02.121Z,1660.16
2022-12-06T12:22:02.257Z,1820.16
2022-12-06T12:23:02.410Z,1881.6
2022-12-06T12:24:02.562Z,1747.2
2022-12-06T12:25:19.409Z,1565.44
2022-12-06T12:26:02.859Z,1957.12
2022-12-06T12:27:03.048Z,2241.28
2022-12-06T12:28:03.139Z,2104.32
2022-12-06T12:29:03.289Z,2039.04
2022-12-06T12:30:03.918Z,1774.08
2022-12-06T12:31:03.569Z,1610.24
2022-12-06T12:32:03.778Z,1630.72
2022-12-06T12:33:03.834Z,1566.72
2022-12-06T12:34:03.966Z,1495.04
2022-12-06T12:35:04.134Z,1399.04
2022-12-06T12:36:04.273Z,1479.68
2022-12-06T12:37:04.432Z,1719.04
2022-12-06T12:38:04.574Z,1610.24
2022-12-06T12:39:04.738Z,1568
2022-12-06T12:40:09.115Z,1411.84
2022-12-06T12:41:05.065Z,1384.96
2022-12-06T12:42:05.124Z,1332.48
2022-12-06T12:43:05.285Z,1410.56
2022-12-06T12:44:28.761Z,1378.56
2022-12-06T12:45:05.523Z,1413.12
2022-12-06T12:46:05.777Z,1390.08
2022-12-06T12:47:05.856Z,1414.4
2022-12-06T12:48:05.999Z,1285.12
2022-12-06T12:49:06.139Z,1361.92
2022-12-06T12:50:06.294Z,1332.48
2022-12-06T12:51:06.444Z,1204.48
2022-12-06T12:52:06.596Z,1218.56
2022-12-06T12:53:06.749Z,1323.52
2022-12-06T12:54:06.910Z,1373.44